createdAt,value
2017-11-16T00:02:02.316Z,4.00
2017-11-16T00:04:29.386Z,3.90
2017-11-16T00:06:55.548Z,3.90
2017-11-16T00:09:21.817Z,3.90
2017-11-16T00:11:48.753Z,3.90
2017-11-16T00:14:15.008Z,3.90
2017-11-16T00:16:41.322Z,3.90
2017-11-16T00:19:08.271Z,3.90
2017-11-16T00:21:35.249Z,3.80
2017-11-16T00:24:01.442Z,3.80
2017-11-16T00:26:28.482Z,3.80
2017-11-16T00:28:55.450Z,3.80
2017-11-16T00:31:21.693Z,3.80
2017-11-16T00:33:47.845Z,3.80
2017-11-16T00:36:14.063Z,3.80
2017-11-16T00:38:40.266Z,3.80
2017-11-16T00:41:06.548Z,3.80
2017-11-16T00:43:32.834Z,3.80
2017-11-16T00:45:59.156Z,3.90
2017-11-16T00:48:25.435Z,3.90
2017-11-16T00:50:52.449Z,3.90
2017-11-16T00:53:18.780Z,3.90
2017-11-16T00:55:45.206Z,4.10
2017-11-16T00:58:11.391Z,4.10
2017-11-16T01:00:37.672Z,4.10
2017-11-16T01:03:03.900Z,4.10
2017-11-16T01:05:30.101Z,4.10
2017-11-16T01:07:56.284Z,4.10
2017-11-16T01:10:22.497Z,4.10
2017-11-16T01:12:48.691Z,4.20
2017-11-16T01:15:14.912Z,4.30
2017-11-16T01:17:41.171Z,4.20
2017-11-16T01:20:07.484Z,4.30
2017-11-16T01:22:33.641Z,4.20
2017-11-16T01:25:00.660Z,4.20
2017-11-16T01:27:26.843Z,4.20
2017-11-16T01:29:53.224Z,4.20
2017-11-16T01:32:19.437Z,4.20
2017-11-16T01:34:45.694Z,4.20
2017-11-16T01:37:12.768Z,4.20
2017-11-16T01:39:39.035Z,4.20
2017-11-16T01:42:05.331Z,4.20
2017-11-16T01:44:31.723Z,4.20
2017-11-16T01:46:58.886Z,4.20
2017-11-16T01:49:25.767Z,4.20
2017-11-16T01:51:51.976Z,4.20
2017-11-16T01:54:18.309Z,4.20
2017-11-16T01:56:44.529Z,4.20
2017-11-16T01:59:10.852Z,4.10
2017-11-16T02:01:36.961Z,4.10
2017-11-16T02:04:04.043Z,4.00
2017-11-16T02:06:30.356Z,4.00
2017-11-16T02:08:56.619Z,4.00
2017-11-16T02:11:22.957Z,3.90
2017-11-16T02:13:49.202Z,3.80
2017-11-16T02:16:15.600Z,3.80
2017-11-16T02:18:41.855Z,3.70
2017-11-16T02:21:08.312Z,3.70
2017-11-16T02:23:35.307Z,3.50
2017-11-16T02:26:01.593Z,3.50
2017-11-16T02:28:27.858Z,3.50
2017-11-16T02:30:54.126Z,3.60
2017-11-16T02:33:21.116Z,3.70
2017-11-16T02:35:47.392Z,3.70
2017-11-16T02:38:13.605Z,3.90
2017-11-16T02:40:39.927Z,3.90
2017-11-16T02:43:06.223Z,4.00
2017-11-16T02:45:32.419Z,3.90
2017-11-16T02:47:59.539Z,3.90
2017-11-16T02:50:25.778Z,3.90
2017-11-16T02:52:52.808Z,3.80
2017-11-16T02:55:19.173Z,3.80
2017-11-16T02:57:46.197Z,3.80
2017-11-16T03:00:12.414Z,3.80
2017-11-16T03:02:38.640Z,3.80
2017-11-16T03:05:05.006Z,3.80
2017-11-16T03:07:31.221Z,3.70
2017-11-16T03:09:58.266Z,3.80
2017-11-16T03:12:25.365Z,3.80
2017-11-16T03:14:51.553Z,3.80
2017-11-16T03:17:17.877Z,3.90
2017-11-16T03:19:44.857Z,3.90
2017-11-16T03:22:11.133Z,4.00
2017-11-16T03:24:38.125Z,4.00
2017-11-16T03:27:04.382Z,4.00
2017-11-16T03:29:30.691Z,4.00
2017-11-16T03:31:56.983Z,4.00
2017-11-16T03:34:23.287Z,4.00
2017-11-16T03:36:49.539Z,4.10
2017-11-16T03:39:16.546Z,4.10
2017-11-16T03:41:42.840Z,4.10
2017-11-16T03:44:09.126Z,4.10
2017-11-16T03:46:36.071Z,4.00
2017-11-16T03:49:03.016Z,4.10
2017-11-16T03:51:29.277Z,4.00
2017-11-16T03:53:55.507Z,4.10
2017-11-16T03:56:21.792Z,4.10
2017-11-16T03:58:48.709Z,4.10
2017-11-16T04:01:14.901Z,4.00
2017-11-16T04:03:41.100Z,4.00
2017-11-16T04:06:08.049Z,4.00
2017-11-16T04:08:34.313Z,4.00
2017-11-16T04:11:00.578Z,4.00
2017-11-16T04:13:26.769Z,4.00
2017-11-16T04:15:53.071Z,3.90
2017-11-16T04:18:19.340Z,4.00
2017-11-16T04:20:45.655Z,4.00
2017-11-16T04:23:11.997Z,4.00
2017-11-16T04:25:38.176Z,3.90
2017-11-16T04:28:04.382Z,3.90
2017-11-16T04:30:31.377Z,3.80
2017-11-16T04:32:57.585Z,3.80
2017-11-16T04:35:23.912Z,3.80
2017-11-16T04:37:50.116Z,3.80
2017-11-16T04:40:17.324Z,3.70
2017-11-16T04:42:43.562Z,3.70
2017-11-16T04:45:09.900Z,3.80
2017-11-16T04:47:36.178Z,3.80
2017-11-16T04:50:02.489Z,3.80
2017-11-16T04:52:28.728Z,3.80
2017-11-16T04:54:55.165Z,3.70
2017-11-16T04:57:21.347Z,3.70
2017-11-16T04:59:47.632Z,3.70
2017-11-16T05:02:13.958Z,3.70
2017-11-16T05:04:40.290Z,3.80
2017-11-16T05:07:06.521Z,3.80
2017-11-16T05:09:32.873Z,3.80
2017-11-16T05:11:59.077Z,3.80
2017-11-16T05:14:25.311Z,3.80
2017-11-16T05:16:51.596Z,3.80
2017-11-16T05:19:17.784Z,3.80
2017-11-16T05:21:44.003Z,3.80
2017-11-16T05:24:10.287Z,3.80
2017-11-16T05:26:36.481Z,3.80
2017-11-16T05:29:03.382Z,3.80
2017-11-16T05:31:29.559Z,3.80
2017-11-16T05:33:56.506Z,3.80
2017-11-16T05:36:23.551Z,3.70
2017-11-16T05:38:50.508Z,3.70
2017-11-16T05:41:17.682Z,3.70
2017-11-16T05:43:43.886Z,3.70
2017-11-16T05:46:10.159Z,3.70
2017-11-16T05:48:36.337Z,3.70
2017-11-16T05:51:02.548Z,3.60
2017-11-16T05:53:29.584Z,3.50
2017-11-16T05:55:56.492Z,3.50
2017-11-16T05:58:22.676Z,3.40
2017-11-16T06:00:48.882Z,3.40
2017-11-16T06:03:15.839Z,3.40
2017-11-16T06:05:42.072Z,3.30
2017-11-16T06:08:08.357Z,3.30
2017-11-16T06:10:34.582Z,3.30
2017-11-16T06:13:00.865Z,3.30
2017-11-16T06:15:27.031Z,3.30
2017-11-16T06:17:53.382Z,3.30
2017-11-16T06:20:20.392Z,3.30
2017-11-16T06:22:46.531Z,3.30
2017-11-16T06:25:12.733Z,3.30
2017-11-16T06:27:38.918Z,3.30
2017-11-16T06:30:05.940Z,3.20
2017-11-16T06:32:32.251Z,3.20
2017-11-16T06:34:58.492Z,3.20
2017-11-16T06:37:24.779Z,3.20
2017-11-16T06:39:51.061Z,3.20
2017-11-16T06:42:17.379Z,3.20
2017-11-16T06:44:44.385Z,3.10
2017-11-16T06:47:10.528Z,3.10
2017-11-16T06:49:36.831Z,3.10
2017-11-16T06:52:03.016Z,3.10
2017-11-16T06:54:29.248Z,3.20
2017-11-16T06:56:56.152Z,3.10
2017-11-16T06:59:22.377Z,3.10
2017-11-16T07:01:49.388Z,3.10
2017-11-16T07:04:15.604Z,3.10
2017-11-16T07:06:41.819Z,3.10
2017-11-16T07:09:08.740Z,3.10
2017-11-16T07:11:34.913Z,3.10
2017-11-16T07:14:01.155Z,3.10
2017-11-16T07:16:27.372Z,3.10
2017-11-16T07:18:53.552Z,3.10
2017-11-16T07:21:19.837Z,3.10
2017-11-16T07:23:46.172Z,3.20
2017-11-16T07:26:12.348Z,3.20
2017-11-16T07:28:39.342Z,3.10
2017-11-16T07:31:05.678Z,3.10
2017-11-16T07:33:31.859Z,3.10
2017-11-16T07:35:58.159Z,3.10
2017-11-16T07:38:24.450Z,3.20
2017-11-16T07:40:50.659Z,3.20
2017-11-16T07:43:16.904Z,3.10
2017-11-16T07:45:43.226Z,3.20
2017-11-16T07:48:09.412Z,3.20
2017-11-16T07:50:36.378Z,3.30
2017-11-16T07:53:02.742Z,3.20
2017-11-16T07:55:28.937Z,3.30
2017-11-16T07:57:55.108Z,3.20
2017-11-16T08:00:21.461Z,3.10
2017-11-16T08:02:48.451Z,3.10
2017-11-16T08:05:14.757Z,3.10
2017-11-16T08:07:40.982Z,3.10
2017-11-16T08:10:07.161Z,3.10
2017-11-16T08:12:33.357Z,3.10
2017-11-16T08:14:59.645Z,3.20
2017-11-16T08:17:26.966Z,3.20
2017-11-16T08:19:54.047Z,3.20
2017-11-16T08:22:20.442Z,3.20
2017-11-16T08:24:46.721Z,3.20
2017-11-16T08:27:12.942Z,3.20
2017-11-16T08:29:39.227Z,3.30
2017-11-16T08:32:05.416Z,3.30
2017-11-16T08:34:31.647Z,3.40
2017-11-16T08:36:57.870Z,3.40
2017-11-16T08:39:24.135Z,3.30
2017-11-16T08:41:50.366Z,3.30
2017-11-16T08:44:16.676Z,3.30
2017-11-16T08:46:43.219Z,3.30
2017-11-16T08:49:09.577Z,3.20
2017-11-16T08:51:36.591Z,3.30
2017-11-16T08:54:02.803Z,3.30
2017-11-16T08:56:29.315Z,3.30
2017-11-16T08:58:55.557Z,3.40
2017-11-16T09:01:21.818Z,3.40
2017-11-16T09:03:48.081Z,3.50
2017-11-16T09:06:14.407Z,3.50
2017-11-16T09:08:41.430Z,3.60
2017-11-16T09:11:07.746Z,3.60
2017-11-16T09:13:34.143Z,3.60
2017-11-16T09:16:00.348Z,3.70
2017-11-16T09:18:26.654Z,3.70
2017-11-16T09:20:53.572Z,3.90
2017-11-16T09:23:19.741Z,3.90
2017-11-16T09:25:46.771Z,4.00
2017-11-16T09:28:13.842Z,4.00
2017-11-16T09:30:40.066Z,4.00
2017-11-16T09:33:06.472Z,4.00
2017-11-16T09:35:32.747Z,4.10
2017-11-16T09:37:59.070Z,4.10
2017-11-16T09:40:25.317Z,4.20
2017-11-16T09:42:51.585Z,4.20
2017-11-16T09:45:18.589Z,4.20
2017-11-16T09:47:44.776Z,4.20
2017-11-16T09:50:11.112Z,4.10
2017-11-16T09:52:37.427Z,4.00
2017-11-16T09:55:04.589Z,3.90
2017-11-16T09:57:30.824Z,3.90
2017-11-16T09:59:57.069Z,4.00
2017-11-16T10:02:23.396Z,4.10
2017-11-16T10:04:49.650Z,4.20
2017-11-16T10:07:15.865Z,4.30
2017-11-16T10:09:42.096Z,4.30
2017-11-16T10:12:08.278Z,4.30
2017-11-16T10:14:34.596Z,4.30
2017-11-16T10:17:01.654Z,4.30
2017-11-16T10:19:27.836Z,4.30
2017-11-16T10:21:54.046Z,4.30
2017-11-16T10:24:20.277Z,4.40
2017-11-16T10:26:46.532Z,4.50
2017-11-16T10:29:12.793Z,4.60
2017-11-16T10:31:39.044Z,4.60
2017-11-16T10:34:05.988Z,4.70
2017-11-16T10:36:32.325Z,4.70
2017-11-16T10:38:58.545Z,4.60
2017-11-16T10:41:24.831Z,4.60
2017-11-16T10:43:51.092Z,4.70
2017-11-16T10:46:17.329Z,4.60
2017-11-16T10:48:43.547Z,4.70
2017-11-16T10:51:09.824Z,4.70
2017-11-16T10:53:36.916Z,4.80
2017-11-16T10:56:03.147Z,4.80
2017-11-16T10:58:29.439Z,4.70
2017-11-16T11:00:56.411Z,4.80
2017-11-16T11:03:22.588Z,4.80
2017-11-16T11:05:48.792Z,4.80
2017-11-16T11:08:15.040Z,4.90
2017-11-16T11:10:41.280Z,4.90
2017-11-16T11:13:08.265Z,4.90
2017-11-16T11:15:34.702Z,4.90
2017-11-16T11:18:00.870Z,4.90
2017-11-16T11:20:27.060Z,4.80
2017-11-16T11:22:53.297Z,4.80
2017-11-16T11:25:20.270Z,4.80
2017-11-16T11:27:46.521Z,4.80
2017-11-16T11:30:13.490Z,4.90
2017-11-16T11:32:39.768Z,4.90
2017-11-16T11:35:05.962Z,5.00
2017-11-16T11:37:32.241Z,5.00
2017-11-16T11:39:59.163Z,5.00
2017-11-16T11:42:25.399Z,5.00
2017-11-16T11:44:52.311Z,4.90
2017-11-16T11:47:18.527Z,4.90
2017-11-16T11:49:46.437Z,4.90
2017-11-16T11:52:13.408Z,5.00
2017-11-16T11:54:39.614Z,5.00
2017-11-16T11:57:06.659Z,5.10
2017-11-16T11:59:35.746Z,5.20
2017-11-16T12:02:02.651Z,5.20
2017-11-16T12:04:28.946Z,5.20
2017-11-16T12:06:55.232Z,5.20
2017-11-16T12:09:21.430Z,5.30
2017-11-16T12:11:47.694Z,5.40
2017-11-16T12:14:14.604Z,5.50
2017-11-16T12:16:41.188Z,5.50
2017-11-16T12:19:08.228Z,5.50
2017-11-16T12:21:35.219Z,5.50
2017-11-16T12:24:01.420Z,5.40
2017-11-16T12:26:27.677Z,5.50
2017-11-16T12:28:53.933Z,5.40
2017-11-16T12:31:20.169Z,5.40
2017-11-16T12:33:46.350Z,5.30
2017-11-16T12:36:12.691Z,5.20
2017-11-16T12:38:38.888Z,5.20
2017-11-16T12:41:05.126Z,5.10
2017-11-16T12:43:31.374Z,5.10
2017-11-16T12:45:57.620Z,5.20
2017-11-16T12:48:23.808Z,5.20
2017-11-16T12:50:50.066Z,5.30
2017-11-16T12:53:16.394Z,5.20
2017-11-16T12:55:42.588Z,5.30
2017-11-16T12:58:08.746Z,5.30
2017-11-16T13:00:35.052Z,5.40
2017-11-16T13:03:01.241Z,5.40
2017-11-16T13:05:27.393Z,5.40
2017-11-16T13:07:53.582Z,5.50
2017-11-16T13:10:20.570Z,5.40
2017-11-16T13:12:46.777Z,5.40
2017-11-16T13:15:12.972Z,5.40
2017-11-16T13:17:39.219Z,5.40
2017-11-16T13:20:05.497Z,5.40
2017-11-16T13:22:31.658Z,5.50
2017-11-16T13:24:58.674Z,5.50
2017-11-16T13:27:24.855Z,5.50
2017-11-16T13:29:51.047Z,5.50
2017-11-16T13:32:18.026Z,5.50
2017-11-16T13:34:44.221Z,5.50
2017-11-16T13:37:11.300Z,5.50
2017-11-16T13:39:37.479Z,5.50
2017-11-16T13:42:03.846Z,5.40
2017-11-16T13:44:30.736Z,5.40
2017-11-16T13:46:56.945Z,5.40
2017-11-16T13:49:23.246Z,5.40
2017-11-16T13:51:49.499Z,5.40
2017-11-16T13:54:15.682Z,5.50
2017-11-16T13:56:42.745Z,5.50
2017-11-16T13:59:09.041Z,5.50
2017-11-16T14:01:35.253Z,5.50
2017-11-16T14:04:01.431Z,5.50
2017-11-16T14:06:27.753Z,5.60
2017-11-16T14:08:53.907Z,5.70
2017-11-16T14:11:20.136Z,5.80
2017-11-16T14:13:46.350Z,5.70
2017-11-16T14:16:12.495Z,5.70
2017-11-16T14:18:38.888Z,5.70
2017-11-16T14:21:05.124Z,5.60
2017-11-16T14:23:31.343Z,5.60
2017-11-16T14:25:57.594Z,5.50
2017-11-16T14:28:23.738Z,5.50
2017-11-16T14:30:49.935Z,5.40
2017-11-16T14:33:16.141Z,5.50
2017-11-16T14:35:42.393Z,5.50
2017-11-16T14:38:08.565Z,5.50
2017-11-16T14:40:34.945Z,5.40
2017-11-16T14:43:01.198Z,5.40
2017-11-16T14:45:27.373Z,5.40
2017-11-16T14:47:54.341Z,5.40
2017-11-16T14:50:20.881Z,5.40
2017-11-16T14:52:47.092Z,5.30
2017-11-16T14:55:13.375Z,5.20
2017-11-16T14:57:39.584Z,5.10
2017-11-16T15:00:06.559Z,4.90
2017-11-16T15:02:33.525Z,4.80
2017-11-16T15:04:59.819Z,4.80
2017-11-16T15:07:26.200Z,4.70
2017-11-16T15:09:52.619Z,4.50
2017-11-16T15:12:18.930Z,4.40
2017-11-16T15:14:46.057Z,4.20
2017-11-16T15:17:12.460Z,4.20
2017-11-16T15:19:38.678Z,4.30
2017-11-16T15:22:04.899Z,4.30
2017-11-16T15:24:31.063Z,4.40
2017-11-16T15:26:57.301Z,4.40
2017-11-16T15:29:24.326Z,4.40
2017-11-16T15:31:51.298Z,4.40
2017-11-16T15:34:17.506Z,4.40
2017-11-16T15:36:43.957Z,4.40
2017-11-16T15:39:11.035Z,4.40
2017-11-16T15:41:37.220Z,4.40
2017-11-16T15:44:03.367Z,4.40
2017-11-16T15:46:30.429Z,4.30
2017-11-16T15:48:56.792Z,4.30
2017-11-16T15:51:22.971Z,4.30
2017-11-16T15:53:49.940Z,4.30
2017-11-16T15:56:16.400Z,4.20
2017-11-16T15:58:43.433Z,4.20
2017-11-16T16:01:09.678Z,4.20
2017-11-16T16:03:36.053Z,4.20
2017-11-16T16:06:02.312Z,4.10
2017-11-16T16:08:28.633Z,4.10
2017-11-16T16:10:54.944Z,4.10
2017-11-16T16:13:21.145Z,4.10
2017-11-16T16:15:48.236Z,4.10
2017-11-16T16:18:14.434Z,4.10
2017-11-16T16:20:41.493Z,4.00
2017-11-16T16:23:07.714Z,4.00
2017-11-16T16:25:34.030Z,4.00
2017-11-16T16:28:00.994Z,4.00
2017-11-16T16:30:27.333Z,4.00
2017-11-16T16:32:53.552Z,3.90
2017-11-16T16:35:19.818Z,4.00
2017-11-16T16:37:46.026Z,4.00
2017-11-16T16:40:12.172Z,3.90
2017-11-16T16:42:38.522Z,3.90
2017-11-16T16:45:05.476Z,4.00
2017-11-16T16:47:32.408Z,4.00
2017-11-16T16:49:58.678Z,4.00
2017-11-16T16:52:24.990Z,4.00
2017-11-16T16:54:52.124Z,3.90
2017-11-16T16:57:19.150Z,3.90
2017-11-16T16:59:45.490Z,3.90
2017-11-16T17:02:11.731Z,3.90
2017-11-16T17:04:38.821Z,3.90
2017-11-16T17:07:05.088Z,3.90
2017-11-16T17:09:31.293Z,3.80
2017-11-16T17:11:57.547Z,3.80
2017-11-16T17:14:23.733Z,3.80
2017-11-16T17:16:49.910Z,3.80
2017-11-16T17:19:16.883Z,3.70
2017-11-16T17:21:43.067Z,3.70
2017-11-16T17:24:09.291Z,3.70
2017-11-16T17:26:35.493Z,3.70
2017-11-16T17:29:01.773Z,3.70
2017-11-16T17:31:28.699Z,3.60
2017-11-16T17:33:55.646Z,3.60
2017-11-16T17:36:22.727Z,3.60
2017-11-16T17:38:48.925Z,3.60
2017-11-16T17:41:15.850Z,3.70
2017-11-16T17:43:42.076Z,3.70
2017-11-16T17:46:08.362Z,3.60
2017-11-16T17:48:34.600Z,3.70
2017-11-16T17:51:00.878Z,3.60
2017-11-16T17:53:28.020Z,3.60
2017-11-16T17:55:54.948Z,3.60
2017-11-16T17:58:21.263Z,3.60
2017-11-16T18:00:47.608Z,3.50
2017-11-16T18:03:13.865Z,3.50
2017-11-16T18:05:40.149Z,3.50
2017-11-16T18:08:06.400Z,3.50
2017-11-16T18:10:33.346Z,3.40
2017-11-16T18:12:59.620Z,3.40
2017-11-16T18:15:25.889Z,3.30
2017-11-16T18:17:52.140Z,3.30
2017-11-16T18:20:18.470Z,3.20
2017-11-16T18:22:45.453Z,3.00
2017-11-16T18:25:11.823Z,3.00
2017-11-16T18:27:38.053Z,3.00
2017-11-16T18:30:04.310Z,2.90
2017-11-16T18:32:30.584Z,2.90
2017-11-16T18:34:56.777Z,2.90
2017-11-16T18:37:23.006Z,2.90
2017-11-16T18:39:49.192Z,2.80
2017-11-16T18:42:16.241Z,2.70
2017-11-16T18:44:42.552Z,2.70
2017-11-16T18:47:08.720Z,2.70
2017-11-16T18:49:35.055Z,2.70
2017-11-16T18:52:01.299Z,2.60
2017-11-16T18:54:27.542Z,2.60
2017-11-16T18:56:53.846Z,2.60
2017-11-16T18:59:20.153Z,2.50
2017-11-16T19:01:46.446Z,2.50
2017-11-16T19:04:12.744Z,2.50
2017-11-16T19:06:39.015Z,2.50
2017-11-16T19:09:06.068Z,2.50
2017-11-16T19:11:33.079Z,2.50
2017-11-16T19:14:00.030Z,2.50
2017-11-16T19:16:26.303Z,2.50
2017-11-16T19:18:52.521Z,2.50
2017-11-16T19:21:19.493Z,2.30
2017-11-16T19:23:45.676Z,2.30
2017-11-16T19:26:13.430Z,2.20
2017-11-16T19:28:39.691Z,2.20
2017-11-16T19:31:06.078Z,2.10
2017-11-16T19:33:32.335Z,2.00
2017-11-16T19:35:59.368Z,1.90
2017-11-16T19:38:26.340Z,1.90
2017-11-16T19:40:52.615Z,1.90
2017-11-16T19:43:18.928Z,1.80
2017-11-16T19:45:45.389Z,1.70
2017-11-16T19:48:12.432Z,1.60
2017-11-16T19:50:38.658Z,1.50
2017-11-16T19:53:04.881Z,1.50
2017-11-16T19:55:31.223Z,1.40
2017-11-16T19:57:57.442Z,1.40
2017-11-16T20:00:23.754Z,1.30
2017-11-16T20:02:49.923Z,1.20
2017-11-16T20:05:17.013Z,1.10
2017-11-16T20:07:43.299Z,1.00
2017-11-16T20:10:10.355Z,1.00
2017-11-16T20:12:36.629Z,1.00
2017-11-16T20:15:02.971Z,1.00
2017-11-16T20:17:29.605Z,1.00
2017-11-16T20:19:55.776Z,0.90
2017-11-16T20:22:22.078Z,0.90
2017-11-16T20:24:48.335Z,0.90
2017-11-16T20:27:14.516Z,0.90
2017-11-16T20:29:41.453Z,0.80
2017-11-16T20:32:07.696Z,0.80
2017-11-16T20:34:33.933Z,0.80
2017-11-16T20:37:07.145Z,0.80
2017-11-16T20:39:39.549Z,0.80
2017-11-16T20:42:15.773Z,0.80
2017-11-16T20:44:48.095Z,0.70
2017-11-16T20:47:30.298Z,0.60
2017-11-16T20:49:59.374Z,0.60
2017-11-16T20:52:32.707Z,0.50
2017-11-16T20:54:59.695Z,0.40
2017-11-16T20:57:25.997Z,0.50
2017-11-16T20:59:52.482Z,0.40
2017-11-16T21:02:18.738Z,0.40
2017-11-16T21:04:45.151Z,0.40
2017-11-16T21:07:11.329Z,0.40
2017-11-16T21:09:37.505Z,0.40
2017-11-16T21:12:03.751Z,0.40
2017-11-16T21:14:30.692Z,0.50
2017-11-16T21:16:57.450Z,0.50
2017-11-16T21:19:23.642Z,0.50
2017-11-16T21:21:49.843Z,0.50
2017-11-16T21:24:16.141Z,0.50
2017-11-16T21:26:42.381Z,0.40
2017-11-16T21:29:08.625Z,0.40
2017-11-16T21:31:34.905Z,0.40
2017-11-16T21:34:01.843Z,0.40
2017-11-16T21:36:29.337Z,0.40
2017-11-16T21:38:55.623Z,0.40
2017-11-16T21:41:22.644Z,0.40
2017-11-16T21:43:48.978Z,0.30
2017-11-16T21:46:15.316Z,0.40
2017-11-16T21:48:42.355Z,0.40
2017-11-16T21:51:08.594Z,0.30
2017-11-16T21:53:35.012Z,0.40
2017-11-16T21:56:01.298Z,0.40
2017-11-16T21:58:27.603Z,0.40
2017-11-16T22:00:54.669Z,0.50
2017-11-16T22:03:20.937Z,0.40
2017-11-16T22:05:47.167Z,0.50
2017-11-16T22:08:13.412Z,0.50
2017-11-16T22:10:40.412Z,0.60
2017-11-16T22:13:06.597Z,0.50
2017-11-16T22:15:33.562Z,0.50
2017-11-16T22:17:59.710Z,0.50
2017-11-16T22:20:25.961Z,0.50
2017-11-16T22:22:52.193Z,0.50
2017-11-16T22:25:18.371Z,0.40
2017-11-16T22:27:44.624Z,0.40
2017-11-16T22:30:10.824Z,0.40
2017-11-16T22:32:37.078Z,0.40
2017-11-16T22:35:03.261Z,0.30
2017-11-16T22:37:29.508Z,0.30
2017-11-16T22:39:55.794Z,0.20
2017-11-16T22:42:21.999Z,0.20
2017-11-16T22:44:48.301Z,0.20
2017-11-16T22:47:14.492Z,0.10
2017-11-16T22:49:41.483Z,0.10
2017-11-16T22:52:07.743Z,0.10
2017-11-16T22:54:33.943Z,0.10
2017-11-16T22:57:00.163Z,0.10
2017-11-16T22:59:26.574Z,0.20
2017-11-16T23:01:52.850Z,0.10
2017-11-16T23:04:19.131Z,0.20
2017-11-16T23:06:45.353Z,0.20
2017-11-16T23:09:11.641Z,0.20
2017-11-16T23:11:38.802Z,0.20
2017-11-16T23:14:05.052Z,0.20
2017-11-16T23:16:31.316Z,0.20
2017-11-16T23:18:57.590Z,0.30
2017-11-16T23:21:23.842Z,0.40
2017-11-16T23:23:50.053Z,0.50
2017-11-16T23:26:16.368Z,0.50
2017-11-16T23:28:43.284Z,0.50
2017-11-16T23:31:09.441Z,0.50
2017-11-16T23:33:35.649Z,0.60
2017-11-16T23:36:02.610Z,0.70
2017-11-16T23:38:29.565Z,0.70
2017-11-16T23:40:55.812Z,0.60
2017-11-16T23:43:22.027Z,0.70
2017-11-16T23:45:48.248Z,0.80
2017-11-16T23:48:14.452Z,0.90
2017-11-16T23:50:41.594Z,0.90
2017-11-16T23:53:08.469Z,0.90
2017-11-16T23:55:34.677Z,0.90
2017-11-16T23:58:01.757Z,0.90
